createdAt,value
2023-01-15T00:02:27.462Z,87.20
2023-01-15T00:04:55.599Z,87.00
2023-01-15T00:07:23.705Z,86.80
2023-01-15T00:09:51.956Z,86.90
2023-01-15T00:12:20.053Z,86.50
2023-01-15T00:14:48.120Z,86.30
2023-01-15T00:17:16.181Z,86.30
2023-01-15T00:19:45.637Z,86.10
2023-01-15T00:22:13.685Z,86.20
2023-01-15T00:24:59.121Z,85.90
2023-01-15T00:27:44.190Z,85.90
2023-01-15T00:30:13.499Z,85.80
2023-01-15T00:32:41.631Z,85.70
2023-01-15T00:35:13.134Z,85.80
2023-01-15T00:37:41.267Z,85.70
2023-01-15T00:40:10.731Z,85.50
2023-01-15T00:42:38.809Z,85.50
2023-01-15T00:45:10.326Z,85.40
2023-01-15T00:47:38.884Z,85.30
2023-01-15T00:50:07.925Z,85.30
2023-01-15T00:52:40.061Z,85.20
2023-01-15T00:55:08.510Z,85.20
2023-01-15T00:57:36.626Z,85.30
2023-01-15T01:00:05.565Z,85.10
2023-01-15T01:02:33.742Z,85.20
2023-01-15T01:05:01.866Z,85.10
2023-01-15T01:07:29.963Z,85.10
2023-01-15T01:09:59.450Z,85.30
2023-01-15T01:12:28.549Z,85.00
2023-01-15T01:14:56.706Z,85.20
2023-01-15T01:17:24.758Z,85.10
2023-01-15T01:19:52.806Z,85.00
2023-01-15T01:22:26.717Z,84.90
2023-01-15T01:24:54.789Z,84.80
2023-01-15T01:27:24.235Z,84.90
2023-01-15T01:29:52.316Z,84.80
2023-01-15T01:32:20.363Z,84.90
2023-01-15T01:34:48.410Z,84.70
2023-01-15T01:37:16.523Z,84.60
2023-01-15T01:39:44.679Z,84.60
2023-01-15T01:42:13.466Z,84.70
2023-01-15T01:45:07.340Z,84.50
2023-01-15T01:47:35.415Z,84.60
2023-01-15T01:50:06.501Z,84.60
2023-01-15T01:52:37.198Z,84.50
2023-01-15T01:55:06.125Z,84.60
2023-01-15T01:57:39.114Z,84.50
2023-01-15T02:00:11.511Z,84.50
2023-01-15T02:02:40.079Z,84.40
2023-01-15T02:05:09.295Z,84.40
2023-01-15T02:07:37.491Z,84.40
2023-01-15T02:10:06.224Z,84.20
2023-01-15T02:12:35.664Z,84.30
2023-01-15T02:15:06.790Z,84.10
2023-01-15T02:17:39.464Z,84.00
2023-01-15T02:20:25.761Z,84.00
2023-01-15T02:23:01.855Z,84.10
2023-01-15T02:25:32.587Z,83.80
2023-01-15T02:28:04.607Z,84.10
2023-01-15T02:30:33.823Z,83.80
2023-01-15T02:33:03.749Z,84.10
2023-01-15T02:35:33.319Z,83.70
2023-01-15T02:38:02.444Z,83.80
2023-01-15T02:40:30.505Z,83.70
2023-01-15T02:42:58.615Z,83.60
2023-01-15T02:45:30.177Z,83.50
2023-01-15T02:48:00.579Z,83.50
2023-01-15T02:50:30.299Z,83.40
2023-01-15T02:52:59.695Z,83.40
2023-01-15T02:55:29.167Z,83.50
2023-01-15T02:57:58.668Z,83.40
2023-01-15T03:00:28.136Z,83.20
2023-01-15T03:02:59.799Z,83.30
2023-01-15T03:05:29.143Z,83.10
2023-01-15T03:07:57.930Z,83.20
2023-01-15T03:10:30.114Z,83.20
2023-01-15T03:13:06.215Z,83.10
2023-01-15T03:16:05.035Z,82.90
2023-01-15T03:18:35.119Z,83.00
2023-01-15T03:21:05.849Z,83.00
2023-01-15T03:23:34.813Z,83.10
2023-01-15T03:26:02.869Z,82.80
2023-01-15T03:28:32.851Z,83.00
2023-01-15T03:31:02.330Z,82.80
2023-01-15T03:33:30.844Z,83.00
2023-01-15T03:35:59.892Z,82.70
2023-01-15T03:38:28.936Z,82.70
2023-01-15T03:41:01.564Z,82.70
2023-01-15T03:43:42.148Z,82.70
2023-01-15T03:46:18.672Z,82.60
2023-01-15T03:48:50.794Z,82.60
2023-01-15T03:51:21.337Z,82.60
2023-01-15T03:53:50.805Z,82.60
2023-01-15T03:56:23.295Z,82.70
2023-01-15T03:58:54.364Z,82.40
2023-01-15T04:01:25.816Z,82.80
2023-01-15T04:03:53.928Z,82.60
2023-01-15T04:06:21.996Z,82.30
2023-01-15T04:08:50.013Z,82.30
2023-01-15T04:11:23.357Z,82.40
2023-01-15T04:13:51.452Z,82.50
2023-01-15T04:16:20.888Z,82.40
2023-01-15T04:18:50.311Z,82.40
2023-01-15T04:21:18.372Z,82.30
2023-01-15T04:23:46.546Z,82.20
2023-01-15T04:26:14.717Z,82.20
2023-01-15T04:28:42.780Z,82.20
2023-01-15T04:31:10.964Z,82.30
2023-01-15T04:33:40.215Z,82.30
2023-01-15T04:36:09.916Z,82.30
2023-01-15T04:38:38.365Z,82.30
2023-01-15T04:41:23.960Z,82.00
2023-01-15T04:44:10.221Z,81.80
2023-01-15T04:46:39.064Z,81.90
2023-01-15T04:49:07.325Z,82.20
2023-01-15T04:51:37.478Z,81.90
2023-01-15T04:54:05.865Z,81.90
2023-01-15T04:56:34.052Z,81.90
2023-01-15T04:59:02.510Z,81.80
2023-01-15T05:01:32.969Z,81.80
2023-01-15T05:04:01.581Z,81.70
2023-01-15T05:06:32.960Z,81.70
2023-01-15T05:09:02.521Z,81.50
2023-01-15T05:11:30.725Z,81.80
2023-01-15T05:13:58.780Z,81.80
2023-01-15T05:16:27.531Z,81.50
2023-01-15T05:18:56.138Z,81.50
2023-01-15T05:21:25.096Z,81.40
2023-01-15T05:23:54.541Z,81.60
2023-01-15T05:26:24.129Z,81.50
2023-01-15T05:28:54.333Z,81.60
2023-01-15T05:31:22.466Z,81.60
2023-01-15T05:33:51.003Z,81.40
2023-01-15T05:36:20.609Z,81.60
2023-01-15T05:38:48.662Z,81.50
2023-01-15T05:41:35.049Z,81.70
2023-01-15T05:44:05.366Z,81.40
2023-01-15T05:46:33.915Z,81.50
2023-01-15T05:49:02.313Z,81.20
2023-01-15T05:51:30.483Z,81.50
2023-01-15T05:53:58.562Z,81.40
2023-01-15T05:56:26.644Z,81.40
2023-01-15T05:58:54.904Z,81.40
2023-01-15T06:01:24.475Z,81.50
2023-01-15T06:03:53.686Z,81.10
2023-01-15T06:06:21.881Z,81.30
2023-01-15T06:08:49.949Z,81.20
2023-01-15T06:11:18.024Z,81.20
2023-01-15T06:13:46.070Z,81.20
2023-01-15T06:16:14.162Z,81.40
2023-01-15T06:18:43.688Z,81.20
2023-01-15T06:21:12.879Z,81.10
2023-01-15T06:23:41.143Z,81.10
2023-01-15T06:26:10.084Z,81.30
2023-01-15T06:28:38.921Z,81.30
2023-01-15T06:31:07.502Z,81.00
2023-01-15T06:33:35.664Z,81.20
2023-01-15T06:36:09.436Z,81.00
2023-01-15T06:38:37.470Z,80.90
2023-01-15T06:41:26.499Z,80.90
2023-01-15T06:44:12.078Z,81.10
2023-01-15T06:46:58.145Z,81.00
2023-01-15T06:49:26.208Z,80.80
2023-01-15T06:51:55.663Z,81.00
2023-01-15T06:54:23.736Z,80.80
2023-01-15T06:56:52.014Z,80.80
2023-01-15T06:59:20.183Z,80.80
2023-01-15T07:01:48.350Z,80.90
2023-01-15T07:04:20.947Z,81.00
2023-01-15T07:06:49.015Z,80.70
2023-01-15T07:09:18.439Z,80.70
2023-01-15T07:11:52.459Z,80.70
2023-01-15T07:14:21.208Z,80.70
2023-01-15T07:16:49.258Z,80.60
2023-01-15T07:19:21.265Z,80.60
2023-01-15T07:21:49.869Z,80.30
2023-01-15T07:24:19.305Z,80.60
2023-01-15T07:26:47.350Z,80.80
2023-01-15T07:29:15.823Z,80.30
2023-01-15T07:31:43.948Z,80.30
2023-01-15T07:34:12.109Z,80.20
2023-01-15T07:36:40.201Z,80.60
2023-01-15T07:39:08.739Z,80.10
2023-01-15T07:41:55.574Z,80.20
2023-01-15T07:44:40.958Z,80.30
2023-01-15T07:47:32.979Z,80.00
2023-01-15T07:50:01.025Z,79.90
2023-01-15T07:52:29.137Z,80.00
2023-01-15T07:54:57.199Z,79.90
2023-01-15T07:57:26.615Z,79.90
2023-01-15T07:59:54.723Z,79.90
2023-01-15T08:02:23.361Z,79.80
2023-01-15T08:04:57.025Z,79.80
2023-01-15T08:07:25.446Z,80.00
2023-01-15T08:10:14.636Z,79.90
2023-01-15T08:13:21.798Z,79.60
2023-01-15T08:15:51.021Z,80.00
2023-01-15T08:18:19.099Z,79.60
2023-01-15T08:20:47.419Z,79.90
2023-01-15T08:23:21.099Z,79.50
2023-01-15T08:26:20.578Z,79.70
2023-01-15T08:29:09.939Z,79.50
2023-01-15T08:32:20.560Z,79.40
2023-01-15T08:34:48.613Z,79.30
2023-01-15T08:37:21.063Z,79.30
2023-01-15T08:39:50.965Z,79.70
2023-01-15T08:42:19.003Z,79.30
2023-01-15T08:44:48.666Z,79.40
2023-01-15T08:47:16.710Z,79.00
2023-01-15T08:49:44.771Z,79.20
2023-01-15T08:52:12.807Z,79.10
2023-01-15T08:54:42.172Z,79.30
2023-01-15T08:57:12.034Z,78.70
2023-01-15T08:59:43.014Z,79.10
2023-01-15T09:02:17.756Z,78.80
2023-01-15T09:04:45.890Z,78.90
2023-01-15T09:07:14.128Z,79.10
2023-01-15T09:09:42.212Z,78.70
2023-01-15T09:12:10.357Z,78.50
2023-01-15T09:14:58.707Z,78.50
2023-01-15T09:17:27.871Z,78.90
2023-01-15T09:19:57.123Z,78.50
2023-01-15T09:22:25.383Z,78.60
2023-01-15T09:24:53.468Z,78.50
2023-01-15T09:27:21.572Z,78.40
2023-01-15T09:29:49.615Z,78.10
2023-01-15T09:32:17.694Z,78.60
2023-01-15T09:34:52.739Z,78.30
2023-01-15T09:37:20.834Z,78.30
2023-01-15T09:39:49.300Z,78.00
2023-01-15T09:42:41.555Z,77.70
2023-01-15T09:45:17.390Z,78.00
2023-01-15T09:47:51.788Z,78.00
2023-01-15T09:50:25.637Z,77.70
2023-01-15T09:53:29.174Z,78.00
2023-01-15T09:55:57.235Z,78.00
2023-01-15T09:58:32.576Z,77.80
2023-01-15T10:01:00.667Z,77.60
2023-01-15T10:03:32.372Z,77.40
2023-01-15T10:06:06.811Z,77.70
2023-01-15T10:08:35.896Z,77.40
2023-01-15T10:11:05.608Z,77.80
2023-01-15T10:13:37.897Z,77.20
2023-01-15T10:16:06.599Z,77.50
2023-01-15T10:18:34.706Z,77.50
2023-01-15T10:21:24.452Z,77.00
2023-01-15T10:23:57.747Z,77.20
2023-01-15T10:26:33.671Z,77.30
2023-01-15T10:29:03.513Z,77.30
2023-01-15T10:31:44.223Z,77.20
2023-01-15T10:34:40.559Z,76.80
2023-01-15T10:37:12.055Z,76.90
2023-01-15T10:39:43.557Z,76.80
2023-01-15T10:42:14.937Z,76.80
2023-01-15T10:44:45.942Z,76.60
2023-01-15T10:47:15.979Z,76.70
2023-01-15T10:49:44.078Z,76.80
2023-01-15T10:52:21.088Z,76.50
2023-01-15T10:54:50.054Z,76.80
2023-01-15T10:57:21.398Z,76.70
2023-01-15T10:59:50.583Z,76.50
2023-01-15T11:02:25.076Z,76.60
2023-01-15T11:04:54.337Z,76.50
2023-01-15T11:07:25.129Z,76.60
2023-01-15T11:09:53.188Z,76.20
2023-01-15T11:12:40.445Z,76.60
2023-01-15T11:15:35.637Z,76.40
2023-01-15T11:18:21.130Z,76.00
2023-01-15T11:20:49.467Z,76.00
2023-01-15T11:23:20.402Z,76.10
2023-01-15T11:25:52.715Z,76.10
2023-01-15T11:28:30.680Z,76.40
2023-01-15T11:30:59.475Z,75.70
2023-01-15T11:33:28.896Z,75.80
2023-01-15T11:35:58.610Z,75.80
2023-01-15T11:38:28.586Z,75.40
2023-01-15T11:40:59.290Z,75.60
2023-01-15T11:43:45.692Z,75.60
2023-01-15T11:46:45.033Z,75.30
2023-01-15T11:49:32.260Z,75.60
2023-01-15T11:52:00.301Z,75.30
2023-01-15T11:54:29.745Z,75.50
2023-01-15T11:56:57.840Z,75.50
2023-01-15T11:59:25.952Z,75.40
2023-01-15T12:01:59.308Z,75.50
2023-01-15T12:04:34.124Z,75.30
2023-01-15T12:07:02.423Z,75.20
2023-01-15T12:09:39.472Z,75.40
2023-01-15T12:12:16.423Z,75.00
2023-01-15T12:15:11.293Z,75.50
2023-01-15T12:18:05.756Z,75.20
2023-01-15T12:20:37.353Z,75.00
2023-01-15T12:23:18.960Z,75.20
2023-01-15T12:25:53.572Z,74.80
2023-01-15T12:28:24.550Z,74.80
2023-01-15T12:30:56.635Z,74.70
2023-01-15T12:33:32.414Z,74.70
2023-01-15T12:36:03.506Z,74.90
2023-01-15T12:38:41.819Z,74.30
2023-01-15T12:41:13.421Z,74.40
2023-01-15T12:43:58.960Z,74.50
2023-01-15T12:46:29.605Z,74.20
2023-01-15T12:49:01.449Z,73.30
2023-01-15T12:51:32.606Z,72.50
2023-01-15T12:54:04.192Z,72.00
2023-01-15T12:56:37.473Z,71.30
2023-01-15T12:59:07.427Z,70.60
2023-01-15T13:01:40.019Z,70.60
2023-01-15T13:04:13.754Z,70.00
2023-01-15T13:06:45.926Z,69.70
2023-01-15T13:09:19.366Z,69.70
2023-01-15T13:11:52.961Z,69.50
2023-01-15T13:14:21.633Z,69.30
2023-01-15T13:16:52.377Z,69.00
2023-01-15T13:19:37.967Z,69.10
2023-01-15T13:22:08.312Z,68.90
2023-01-15T13:25:03.866Z,68.70
2023-01-15T13:27:40.741Z,68.50
2023-01-15T13:30:18.458Z,68.40
2023-01-15T13:32:48.604Z,68.40
2023-01-15T13:35:22.834Z,68.20
2023-01-15T13:37:51.788Z,68.10
2023-01-15T13:40:22.514Z,68.00
2023-01-15T13:42:52.314Z,67.70
2023-01-15T13:45:28.018Z,67.70
2023-01-15T13:47:57.485Z,67.70
2023-01-15T13:50:29.225Z,67.50
2023-01-15T13:53:02.582Z,67.50
2023-01-15T13:55:32.202Z,67.20
2023-01-15T13:58:01.652Z,67.30
2023-01-15T14:00:31.690Z,67.00
2023-01-15T14:03:00.378Z,67.20
2023-01-15T14:05:33.016Z,67.10
2023-01-15T14:08:02.273Z,66.90
2023-01-15T14:10:40.512Z,67.10
2023-01-15T14:13:46.716Z,67.00
2023-01-15T14:16:24.442Z,66.80
2023-01-15T14:19:42.075Z,66.70
2023-01-15T14:22:24.961Z,66.70
2023-01-15T14:25:10.645Z,66.20
2023-01-15T14:27:49.711Z,65.90
2023-01-15T14:30:32.148Z,66.00
2023-01-15T14:33:07.267Z,66.10
2023-01-15T14:35:36.685Z,66.00
2023-01-15T14:38:05.822Z,66.20
2023-01-15T14:40:35.447Z,66.20
2023-01-15T14:43:05.476Z,65.90
2023-01-15T14:45:36.165Z,65.90
2023-01-15T14:48:06.225Z,65.70
2023-01-15T14:50:38.561Z,65.60
2023-01-15T14:53:15.909Z,65.60
2023-01-15T14:55:47.597Z,65.50
2023-01-15T14:58:18.180Z,65.80
2023-01-15T15:00:47.387Z,65.40
2023-01-15T15:03:18.594Z,66.20
2023-01-15T15:05:47.162Z,67.30
2023-01-15T15:08:15.627Z,68.10
2023-01-15T15:10:44.825Z,69.20
2023-01-15T15:13:16.234Z,69.80
2023-01-15T15:15:47.433Z,69.50
2023-01-15T15:18:27.591Z,68.60
2023-01-15T15:21:02.820Z,68.30
2023-01-15T15:23:35.685Z,68.10
2023-01-15T15:26:05.815Z,67.40
2023-01-15T15:28:33.897Z,67.10
2023-01-15T15:31:02.397Z,66.50
2023-01-15T15:33:38.306Z,66.40
2023-01-15T15:36:07.071Z,66.00
2023-01-15T15:38:35.178Z,65.80
2023-01-15T15:41:03.797Z,65.70
2023-01-15T15:43:52.493Z,65.30
2023-01-15T15:46:42.577Z,66.40
2023-01-15T15:49:12.742Z,67.60
2023-01-15T15:51:41.224Z,68.60
2023-01-15T15:54:15.476Z,69.10
2023-01-15T15:56:47.031Z,69.70
2023-01-15T15:59:21.038Z,68.80
2023-01-15T16:01:49.189Z,68.40
2023-01-15T16:04:19.483Z,67.90
2023-01-15T16:06:48.117Z,67.70
2023-01-15T16:09:16.629Z,67.10
2023-01-15T16:11:44.711Z,66.60
2023-01-15T16:14:13.139Z,66.20
2023-01-15T16:16:41.193Z,65.90
2023-01-15T16:19:10.528Z,65.80
2023-01-15T16:21:41.825Z,65.70
2023-01-15T16:24:11.813Z,65.50
2023-01-15T16:26:41.602Z,66.10
2023-01-15T16:29:18.139Z,67.00
2023-01-15T16:31:46.176Z,67.70
2023-01-15T16:34:17.445Z,68.00
2023-01-15T16:36:47.172Z,68.60
2023-01-15T16:39:21.215Z,67.90
2023-01-15T16:41:49.245Z,67.60
2023-01-15T16:44:28.025Z,67.50
2023-01-15T16:46:56.782Z,67.20
2023-01-15T16:49:27.283Z,66.80
2023-01-15T16:51:58.980Z,66.10
2023-01-15T16:54:51.788Z,65.70
2023-01-15T16:57:34.621Z,65.50
2023-01-15T17:00:07.702Z,65.10
2023-01-15T17:02:44.198Z,65.00
2023-01-15T17:05:18.127Z,65.90
2023-01-15T17:07:49.715Z,66.50
2023-01-15T17:10:20.924Z,67.30
2023-01-15T17:12:48.982Z,67.70
2023-01-15T17:15:39.113Z,68.20
2023-01-15T17:18:27.408Z,68.70
2023-01-15T17:20:55.695Z,67.50
2023-01-15T17:23:27.444Z,67.30
2023-01-15T17:25:55.699Z,67.20
2023-01-15T17:28:25.906Z,66.80
2023-01-15T17:31:01.776Z,66.30
2023-01-15T17:33:29.869Z,65.70
2023-01-15T17:36:00.771Z,65.10
2023-01-15T17:38:30.175Z,65.00
2023-01-15T17:41:00.751Z,65.10
2023-01-15T17:43:28.762Z,64.30
2023-01-15T17:45:57.533Z,65.50
2023-01-15T17:48:25.575Z,66.30
2023-01-15T17:50:54.579Z,67.10
2023-01-15T17:53:22.700Z,67.50
2023-01-15T17:56:09.400Z,67.90
2023-01-15T17:59:00.385Z,68.40
2023-01-15T18:01:46.483Z,67.80
2023-01-15T18:04:35.350Z,67.50
2023-01-15T18:07:03.398Z,67.20
2023-01-15T18:09:31.445Z,66.60
2023-01-15T18:12:00.938Z,66.10
2023-01-15T18:14:28.985Z,65.60
2023-01-15T18:16:57.536Z,65.20
2023-01-15T18:19:25.548Z,65.90
2023-01-15T18:21:53.629Z,66.50
2023-01-15T18:24:22.262Z,67.10
2023-01-15T18:26:51.983Z,67.50
2023-01-15T18:29:21.628Z,67.90
2023-01-15T18:31:49.909Z,68.30
2023-01-15T18:34:17.929Z,68.60
2023-01-15T18:36:45.962Z,68.90
2023-01-15T18:39:14.040Z,68.80
2023-01-15T18:41:59.623Z,68.20
2023-01-15T18:44:46.406Z,68.40
2023-01-15T18:47:17.519Z,69.10
2023-01-15T18:49:46.195Z,68.80
2023-01-15T18:52:32.752Z,68.80
2023-01-15T18:55:00.800Z,69.00
2023-01-15T18:57:33.596Z,68.90
2023-01-15T19:00:05.669Z,69.00
2023-01-15T19:02:33.801Z,69.30
2023-01-15T19:05:01.853Z,69.30
2023-01-15T19:07:29.907Z,69.30
2023-01-15T19:09:58.005Z,69.20
2023-01-15T19:12:26.253Z,69.40
2023-01-15T19:15:26.213Z,69.40
2023-01-15T19:18:13.006Z,69.70
2023-01-15T19:20:41.060Z,69.60
2023-01-15T19:23:09.540Z,69.50
2023-01-15T19:25:38.570Z,69.80
2023-01-15T19:28:06.791Z,69.70
2023-01-15T19:30:35.561Z,69.70
2023-01-15T19:33:11.223Z,70.10
2023-01-15T19:35:40.170Z,70.00
2023-01-15T19:38:10.561Z,69.70
2023-01-15T19:40:42.037Z,69.90
2023-01-15T19:43:28.228Z,69.90
2023-01-15T19:46:10.180Z,70.00
2023-01-15T19:48:58.360Z,70.10
2023-01-15T19:51:47.789Z,70.30
2023-01-15T19:54:35.927Z,70.10
2023-01-15T19:57:03.999Z,70.20
2023-01-15T19:59:32.041Z,70.10
2023-01-15T20:02:02.516Z,70.40
2023-01-15T20:04:32.116Z,70.20
2023-01-15T20:07:03.593Z,70.10
2023-01-15T20:09:31.609Z,70.30
2023-01-15T20:12:16.912Z,70.20
2023-01-15T20:14:47.208Z,70.20
2023-01-15T20:17:15.426Z,70.20
2023-01-15T20:19:44.819Z,70.30
2023-01-15T20:22:15.614Z,70.30
2023-01-15T20:24:44.459Z,70.20
2023-01-15T20:27:12.745Z,70.20
2023-01-15T20:29:40.902Z,70.20
2023-01-15T20:32:08.927Z,70.70
2023-01-15T20:34:38.659Z,70.00
2023-01-15T20:37:08.067Z,70.40
2023-01-15T20:39:36.158Z,70.20
2023-01-15T20:42:21.879Z,70.10
2023-01-15T20:44:55.866Z,70.10
2023-01-15T20:47:41.603Z,70.20
2023-01-15T20:50:11.342Z,70.00
2023-01-15T20:52:41.475Z,70.10
2023-01-15T20:55:09.697Z,70.20
2023-01-15T20:57:38.448Z,70.70
2023-01-15T21:00:08.904Z,70.00
2023-01-15T21:02:36.944Z,70.00
2023-01-15T21:05:05.416Z,70.10
2023-01-15T21:07:33.477Z,70.10
2023-01-15T21:10:02.878Z,70.10
2023-01-15T21:12:30.951Z,70.60
2023-01-15T21:14:59.039Z,70.00
2023-01-15T21:17:27.140Z,70.00
2023-01-15T21:19:55.162Z,70.50
2023-01-15T21:22:23.204Z,70.00
2023-01-15T21:24:51.652Z,70.20
2023-01-15T21:27:21.116Z,70.50
2023-01-15T21:29:49.163Z,70.10
2023-01-15T21:32:17.213Z,70.10
2023-01-15T21:34:45.350Z,70.20
2023-01-15T21:37:13.460Z,70.00
2023-01-15T21:39:41.661Z,70.30
2023-01-15T21:42:29.203Z,70.30
2023-01-15T21:44:58.661Z,70.10
2023-01-15T21:47:27.767Z,70.30
2023-01-15T21:49:55.838Z,70.20
2023-01-15T21:52:24.016Z,70.50
2023-01-15T21:54:52.320Z,70.20
2023-01-15T21:57:22.275Z,70.40
2023-01-15T21:59:50.376Z,70.40
2023-01-15T22:02:21.994Z,70.30
2023-01-15T22:04:50.136Z,70.50
2023-01-15T22:07:18.376Z,70.50
2023-01-15T22:09:46.438Z,70.40
2023-01-15T22:12:14.464Z,70.50
2023-01-15T22:14:42.862Z,70.60
2023-01-15T22:17:11.312Z,70.30
2023-01-15T22:19:40.723Z,70.60
2023-01-15T22:22:10.143Z,70.40
2023-01-15T22:24:39.245Z,70.30
2023-01-15T22:27:07.987Z,70.20
2023-01-15T22:29:38.820Z,70.60
2023-01-15T22:32:07.442Z,70.30
2023-01-15T22:34:35.498Z,70.40
2023-01-15T22:37:04.922Z,70.50
2023-01-15T22:39:33.000Z,70.50
2023-01-15T22:42:18.472Z,70.40
2023-01-15T22:44:46.541Z,70.60
2023-01-15T22:47:14.573Z,70.80
2023-01-15T22:49:42.616Z,70.60
2023-01-15T22:52:12.108Z,71.00
2023-01-15T22:54:41.428Z,71.20
2023-01-15T22:57:09.515Z,70.80
2023-01-15T22:59:37.522Z,71.20
2023-01-15T23:02:05.964Z,71.10
2023-01-15T23:04:34.199Z,71.20
2023-01-15T23:07:02.744Z,71.00
2023-01-15T23:09:32.164Z,71.30
2023-01-15T23:12:00.253Z,71.00
2023-01-15T23:14:28.395Z,71.20
2023-01-15T23:16:56.468Z,71.20
2023-01-15T23:19:26.677Z,71.30
2023-01-15T23:21:54.948Z,71.40
2023-01-15T23:24:22.973Z,71.40
2023-01-15T23:26:52.397Z,71.30
2023-01-15T23:29:20.422Z,71.40
2023-01-15T23:31:48.467Z,71.50
2023-01-15T23:34:16.529Z,71.40
2023-01-15T23:36:44.576Z,71.40
2023-01-15T23:39:12.619Z,71.40
2023-01-15T23:41:57.973Z,71.50
2023-01-15T23:44:44.852Z,71.30
2023-01-15T23:47:12.931Z,71.50
2023-01-15T23:49:40.962Z,71.60
2023-01-15T23:52:09.031Z,71.40
2023-01-15T23:54:37.071Z,71.40
2023-01-15T23:57:07.935Z,71.50
2023-01-15T23:59:37.403Z,71.50
